Time;durP1;ratioP1;P1;durP2;ratioP2;P2;SDS_P1;SDS_P2;PMS_P1;PMS_P2;Temp;Humidity;BMP_temperature;BMP_pressure;BME280_temperature;BME280_humidity;BME280_pressure;Samples;Min_cycle;Max_cycle;Signal;HPM_P1;HPM_P2
2022/05/13 00:01:10;;;;;;;9.82;2.20;;;13.50;99.90;;;;;;5081485;28;20036;-63
2022/05/13 00:03:37;;;;;;;7.18;2.17;;;13.50;99.90;;;;;;5084381;28;20044;-63
2022/05/13 00:06:03;;;;;;;5.65;1.73;;;13.50;99.90;;;;;;5080537;28;20040;-66
2022/05/13 00:08:29;;;;;;;7.38;2.08;;;13.50;99.90;;;;;;5085286;28;20047;-63
2022/05/13 00:10:55;;;;;;;7.57;2.20;;;13.50;99.90;;;;;;5079315;28;20044;-64
2022/05/13 00:13:21;;;;;;;7.32;2.00;;;13.50;99.90;;;;;;5077162;28;20036;-63
2022/05/13 00:15:48;;;;;;;6.00;1.90;;;13.40;99.90;;;;;;5080197;28;20044;-63
2022/05/13 00:18:15;;;;;;;5.85;1.80;;;13.40;99.90;;;;;;5075738;28;20048;-63
2022/05/13 00:20:41;;;;;;;5.82;1.80;;;13.40;99.90;;;;;;5075125;28;20048;-64
2022/05/13 00:23:07;;;;;;;5.95;1.70;;;13.40;99.90;;;;;;5082842;28;20040;-63
2022/05/13 00:25:36;;;;;;;6.72;1.80;;;13.30;99.90;;;;;;5082292;28;20044;-63
2022/05/13 00:28:03;;;;;;;6.50;1.88;;;13.40;99.90;;;;;;5080677;28;20120;-66
2022/05/13 00:30:32;;;;;;;10.07;2.25;;;13.30;99.90;;;;;;5082853;28;20052;-63
2022/05/13 00:32:58;;;;;;;8.57;2.10;;;13.30;99.90;;;;;;5082004;28;20350;-63
2022/05/13 00:35:24;;;;;;;7.60;2.25;;;13.30;99.90;;;;;;5081389;28;20491;-63
2022/05/13 00:37:50;;;;;;;7.20;2.00;;;13.30;99.90;;;;;;5080855;28;20043;-63
2022/05/13 00:40:17;;;;;;;10.85;2.10;;;13.30;99.90;;;;;;5077848;28;20040;-63
2022/05/13 00:42:43;;;;;;;5.30;1.70;;;13.20;99.90;;;;;;5079059;28;20052;-63
2022/05/13 00:45:13;;;;;;;4.80;1.85;;;13.20;99.90;;;;;;5079200;28;20051;-63
2022/05/13 00:47:39;;;;;;;7.00;1.88;;;13.20;99.90;;;;;;5081247;28;20419;-63
2022/05/13 00:50:05;;;;;;;8.85;2.30;;;13.20;99.90;;;;;;5073462;28;20071;-63
2022/05/13 00:52:32;;;;;;;7.28;2.20;;;13.20;99.90;;;;;;5078525;28;20044;-63
2022/05/13 00:55:03;;;;;;;6.88;1.92;;;13.20;99.90;;;;;;5080035;28;20059;-63
2022/05/13 00:57:30;;;;;;;8.45;2.20;;;13.20;99.90;;;;;;5087473;28;20056;-63
2022/05/13 00:59:57;;;;;;;5.28;1.75;;;13.10;99.90;;;;;;5086335;28;20036;-63
2022/05/13 01:02:22;;;;;;;5.28;1.80;;;13.10;99.90;;;;;;5076872;28;20473;-63
2022/05/13 01:04:48;;;;;;;4.32;1.80;;;13.10;99.90;;;;;;5081257;28;20043;-63
2022/05/13 01:07:19;;;;;;;6.30;2.00;;;13.20;99.90;;;;;;5076874;28;20076;-63
2022/05/13 01:09:49;;;;;;;5.75;1.90;;;13.20;99.90;;;;;;5073435;28;20044;-64
2022/05/13 01:12:21;;;;;;;8.45;2.42;;;13.10;99.90;;;;;;5076252;28;20076;-64
2022/05/13 01:14:52;;;;;;;6.13;2.03;;;13.00;99.90;;;;;;5081677;28;20048;-64
2022/05/13 01:20:06;;;;;;;5.95;1.85;;;13.00;99.90;;;;;;5082334;28;20055;-63
2022/05/13 01:22:42;;;;;;;7.32;1.80;;;13.00;99.90;;;;;;5076313;28;20113;-64
2022/05/13 01:25:09;;;;;;;7.43;2.08;;;13.00;99.90;;;;;;5082201;28;20040;-63
2022/05/13 01:27:34;;;;;;;6.25;2.00;;;13.00;99.90;;;;;;5086313;28;20409;-63
2022/05/13 01:30:00;;;;;;;3.83;1.80;;;13.00;99.90;;;;;;5088694;28;20040;-63
2022/05/13 01:32:25;;;;;;;5.88;1.92;;;13.00;99.90;;;;;;5077933;28;20043;-63
2022/05/13 01:34:51;;;;;;;5.07;2.03;;;12.90;99.90;;;;;;5081737;28;20481;-63
2022/05/13 01:37:16;;;;;;;8.35;2.50;;;12.90;99.90;;;;;;5088206;28;20077;-62
2022/05/13 01:39:42;;;;;;;5.32;1.83;;;12.90;99.90;;;;;;5087221;28;20164;-63
2022/05/13 01:42:08;;;;;;;4.53;2.20;;;12.90;99.90;;;;;;5081050;28;20037;-63
2022/05/13 01:44:34;;;;;;;8.23;1.95;;;12.90;99.90;;;;;;5081644;28;20124;-63
2022/05/13 01:46:59;;;;;;;5.88;2.17;;;12.90;99.90;;;;;;5086677;28;20458;-62
2022/05/13 01:49:25;;;;;;;6.30;2.10;;;12.90;99.90;;;;;;5087786;28;20032;-63
2022/05/13 01:51:50;;;;;;;7.32;2.15;;;12.90;99.90;;;;;;5086620;28;20230;-62
2022/05/13 01:54:16;;;;;;;7.22;2.20;;;12.90;99.90;;;;;;5079485;28;20035;-63
2022/05/13 01:56:41;;;;;;;7.63;2.28;;;12.90;99.90;;;;;;5088496;28;20095;-63
2022/05/13 01:59:07;;;;;;;5.72;2.08;;;12.80;99.90;;;;;;5082785;28;20055;-63
2022/05/13 02:01:33;;;;;;;6.25;1.95;;;12.90;99.90;;;;;;5086474;28;20145;-64
2022/05/13 02:03:58;;;;;;;9.20;2.30;;;12.90;99.90;;;;;;5087656;28;20054;-63
2022/05/13 02:06:26;;;;;;;5.35;2.03;;;12.90;99.90;;;;;;5086435;28;20050;-62
2022/05/13 02:08:55;;;;;;;6.72;2.30;;;12.90;99.90;;;;;;5086553;28;20189;-63
2022/05/13 02:11:23;;;;;;;7.60;2.45;;;12.80;99.90;;;;;;5085522;28;20032;-63
2022/05/13 02:13:50;;;;;;;7.45;2.30;;;12.80;99.90;;;;;;5085213;28;20082;-63
2022/05/13 02:16:16;;;;;;;5.88;2.28;;;12.80;99.90;;;;;;5084854;28;20431;-64
2022/05/13 02:18:41;;;;;;;5.25;2.08;;;12.70;99.90;;;;;;5078080;28;20051;-63
2022/05/13 02:21:08;;;;;;;6.15;2.15;;;12.70;99.90;;;;;;5084947;28;20084;-63
2022/05/13 02:23:34;;;;;;;6.57;2.22;;;12.70;99.90;;;;;;5079647;28;20044;-64
2022/05/13 02:26:02;;;;;;;9.15;2.67;;;12.70;99.90;;;;;;5089930;28;20081;-63
2022/05/13 02:28:30;;;;;;;5.15;2.10;;;12.70;99.90;;;;;;5075081;28;20082;-63
2022/05/13 02:30:56;;;;;;;7.90;2.40;;;12.70;99.90;;;;;;5081083;28;20037;-64
2022/05/13 02:33:22;;;;;;;7.38;2.50;;;12.70;99.90;;;;;;5081115;28;20040;-64
2022/05/13 02:35:48;;;;;;;8.35;2.28;;;12.70;99.90;;;;;;5083624;28;20374;-63
2022/05/13 02:38:15;;;;;;;7.22;2.03;;;12.80;99.90;;;;;;5079707;28;20036;-63
2022/05/13 02:43:25;;;;;;;7.93;2.58;;;12.70;99.90;;;;;;5083785;28;20091;-65
2022/05/13 02:45:52;;;;;;;6.97;2.38;;;12.70;99.90;;;;;;5078725;28;20075;-63
2022/05/13 02:48:18;;;;;;;8.13;2.45;;;12.70;99.90;;;;;;5088275;28;20044;-63
2022/05/13 02:50:43;;;;;;;7.88;2.30;;;12.70;99.90;;;;;;5080343;28;20094;-63
2022/05/13 02:53:09;;;;;;;7.95;2.53;;;12.70;99.90;;;;;;5079013;28;20135;-64
2022/05/13 02:55:35;;;;;;;6.63;2.25;;;12.70;99.90;;;;;;5082128;28;20478;-64
2022/05/13 02:58:00;;;;;;;8.65;2.33;;;12.70;99.90;;;;;;5078906;28;20119;-63
2022/05/13 03:00:26;;;;;;;6.88;2.38;;;12.70;99.90;;;;;;5082999;28;20036;-63
2022/05/13 03:02:52;;;;;;;9.60;2.60;;;12.70;99.90;;;;;;5078371;28;20064;-63
2022/05/13 03:05:17;;;;;;;9.30;2.47;;;12.60;99.90;;;;;;5082849;28;20036;-63
2022/05/13 03:07:43;;;;;;;9.25;2.25;;;12.60;99.90;;;;;;5080629;28;20055;-63
2022/05/13 03:10:08;;;;;;;8.80;2.22;;;12.60;99.90;;;;;;5084008;28;20036;-63
2022/05/13 03:12:35;;;;;;;8.95;2.83;;;12.60;99.90;;;;;;5085625;28;20093;-63
2022/05/13 03:15:01;;;;;;;8.68;2.88;;;12.60;99.90;;;;;;5082838;28;20047;-63
2022/05/13 03:17:27;;;;;;;7.90;2.60;;;12.60;99.90;;;;;;5079949;28;20119;-63
2022/05/13 03:19:52;;;;;;;8.13;2.47;;;12.60;99.90;;;;;;5080809;28;20522;-64
2022/05/13 03:22:18;;;;;;;6.90;2.08;;;12.50;99.90;;;;;;5080368;28;20108;-63
2022/05/13 03:24:43;;;;;;;13.25;3.53;;;12.60;99.90;;;;;;5078295;28;20032;-63
2022/05/13 03:27:09;;;;;;;10.05;2.60;;;12.50;99.90;;;;;;5081187;28;20131;-64
2022/05/13 03:29:35;;;;;;;7.90;2.10;;;12.50;99.90;;;;;;5083288;28;20040;-63
2022/05/13 03:32:05;;;;;;;8.95;2.42;;;12.60;99.90;;;;;;5087070;28;20108;-64
2022/05/13 03:34:31;;;;;;;5.25;2.38;;;12.60;99.90;;;;;;5083907;28;20059;-63
2022/05/13 03:36:57;;;;;;;10.68;2.75;;;12.60;99.90;;;;;;5079398;28;20458;-63
2022/05/13 03:39:22;;;;;;;9.25;2.60;;;12.60;99.90;;;;;;5079206;28;20046;-63
2022/05/13 03:41:48;;;;;;;9.57;2.40;;;12.60;99.90;;;;;;5085569;28;20047;-63
2022/05/13 03:44:14;;;;;;;8.88;2.80;;;12.60;99.90;;;;;;5086601;28;20148;-63
2022/05/13 03:46:39;;;;;;;8.65;2.60;;;12.60;99.90;;;;;;5085690;28;20418;-63
2022/05/13 03:49:05;;;;;;;7.80;2.25;;;12.60;99.90;;;;;;5083846;28;20129;-63
2022/05/13 03:51:32;;;;;;;9.52;2.70;;;12.60;99.90;;;;;;5075232;28;20831;-63
2022/05/13 03:53:58;;;;;;;9.13;2.65;;;12.60;99.90;;;;;;5080427;28;20317;-63
2022/05/13 03:56:24;;;;;;;8.45;2.53;;;12.60;99.90;;;;;;5086983;28;20060;-63
2022/05/13 03:58:50;;;;;;;9.40;2.70;;;12.60;99.90;;;;;;5085438;28;20055;-63
2022/05/13 04:01:16;;;;;;;7.63;2.22;;;12.60;99.90;;;;;;5085266;28;20050;-63
2022/05/13 04:03:42;;;;;;;8.40;2.65;;;12.60;99.90;;;;;;5080190;28;20068;-64
2022/05/13 04:08:58;;;;;;;8.65;2.40;;;12.60;99.90;;;;;;5082287;28;20529;-63
2022/05/13 04:11:38;;;;;;;9.88;2.67;;;12.60;99.90;;;;;;5077394;28;20122;-63
2022/05/13 04:16:50;;;;;;;8.75;2.72;;;12.50;99.90;;;;;;5076128;28;20074;-64
2022/05/13 04:19:16;;;;;;;12.00;2.95;;;12.50;99.90;;;;;;5077706;28;20052;-62
2022/05/13 04:21:44;;;;;;;9.43;2.65;;;12.50;99.90;;;;;;5077531;28;20047;-63
2022/05/13 04:24:12;;;;;;;12.80;3.30;;;12.40;99.90;;;;;;5077823;28;20040;-62
2022/05/13 04:26:38;;;;;;;10.35;2.67;;;12.50;99.90;;;;;;5079955;28;20189;-63
2022/05/13 04:29:05;;;;;;;11.32;3.13;;;12.50;99.90;;;;;;5082083;28;20066;-62
2022/05/13 04:31:37;;;;;;;12.90;3.65;;;12.50;99.90;;;;;;5079347;28;20201;-64
2022/05/13 04:34:03;;;;;;;9.07;2.78;;;12.60;99.90;;;;;;5078034;28;20389;-65
2022/05/13 04:36:30;;;;;;;12.63;3.40;;;12.60;99.90;;;;;;5079406;28;20146;-62
2022/05/13 04:38:56;;;;;;;9.48;3.10;;;12.60;99.90;;;;;;5074629;28;20070;-63
2022/05/13 04:44:08;;;;;;;10.52;2.80;;;12.70;99.90;;;;;;5083456;28;20135;-63
2022/05/13 04:46:34;;;;;;;15.70;3.35;;;12.70;99.90;;;;;;5081434;28;20068;-66
2022/05/13 04:49:00;;;;;;;10.63;3.50;;;12.70;99.90;;;;;;5084773;28;20052;-63
2022/05/13 04:51:26;;;;;;;15.57;3.58;;;12.60;99.90;;;;;;5076822;28;20384;-64
2022/05/13 04:53:53;;;;;;;14.52;3.60;;;12.70;99.90;;;;;;5076797;28;20047;-63
2022/05/13 04:56:20;;;;;;;12.85;3.50;;;12.70;99.90;;;;;;5080437;28;20044;-63
2022/05/13 04:58:46;;;;;;;10.57;3.50;;;12.80;99.90;;;;;;5082125;28;20374;-64
2022/05/13 05:01:12;;;;;;;14.10;3.70;;;12.80;99.90;;;;;;5083126;28;20078;-64
2022/05/13 05:03:40;;;;;;;11.50;4.03;;;12.80;99.90;;;;;;5086249;28;20041;-63
2022/05/13 05:06:07;;;;;;;12.15;3.33;;;12.90;99.90;;;;;;5084974;28;20474;-66
2022/05/13 05:08:33;;;;;;;9.23;3.13;;;13.00;99.90;;;;;;5090231;28;20072;-63
2022/05/13 05:11:00;;;;;;;12.30;3.47;;;13.00;99.90;;;;;;5090230;28;20067;-64
2022/05/13 05:13:30;;;;;;;13.38;3.60;;;13.00;99.90;;;;;;5082950;28;20052;-65
2022/05/13 05:15:57;;;;;;;10.23;3.42;;;13.10;99.90;;;;;;5089627;28;20036;-63
2022/05/13 05:18:23;;;;;;;12.45;4.03;;;13.20;99.90;;;;;;5082876;28;20051;-64
2022/05/13 05:20:49;;;;;;;14.48;3.55;;;13.30;99.90;;;;;;5088285;28;20066;-65
2022/05/13 05:23:18;;;;;;;11.98;3.38;;;13.30;99.90;;;;;;5080109;28;20036;-63
2022/05/13 05:25:45;;;;;;;11.02;3.42;;;13.40;99.90;;;;;;5083117;28;20348;-63
2022/05/13 05:28:11;;;;;;;13.15;3.92;;;13.50;99.90;;;;;;5084932;28;20036;-63
2022/05/13 05:30:37;;;;;;;13.25;4.07;;;13.60;99.90;;;;;;5087748;28;20051;-63
2022/05/13 05:33:03;;;;;;;14.38;4.05;;;13.70;99.90;;;;;;5083096;28;20089;-64
2022/05/13 05:35:29;;;;;;;13.45;3.95;;;13.80;99.90;;;;;;5078695;28;20051;-65
2022/05/13 05:37:56;;;;;;;14.93;3.72;;;13.90;99.90;;;;;;5087558;28;20045;-64
2022/05/13 05:40:22;;;;;;;11.75;3.33;;;14.10;99.90;;;;;;5087417;28;20036;-63
2022/05/13 05:42:48;;;;;;;13.07;3.80;;;14.10;99.90;;;;;;5088117;28;20055;-63
2022/05/13 05:45:16;;;;;;;10.05;3.47;;;14.20;99.90;;;;;;5086734;28;20041;-64
2022/05/13 05:47:42;;;;;;;14.02;3.83;;;14.40;99.90;;;;;;5078532;28;20045;-64
2022/05/13 05:50:10;;;;;;;12.25;3.50;;;14.60;99.90;;;;;;5085594;28;20474;-63
2022/05/13 05:52:36;;;;;;;13.25;3.30;;;14.80;99.90;;;;;;5082289;28;20040;-63
2022/05/13 05:58:09;;;;;;;11.07;3.55;;;14.80;99.90;;;;;;5083862;28;20052;-64
2022/05/13 06:00:41;;;;;;;9.45;2.95;;;14.90;99.90;;;;;;5082262;28;20039;-64
2022/05/13 06:03:07;;;;;;;10.18;3.05;;;15.00;99.90;;;;;;5087374;28;20363;-63
2022/05/13 06:05:33;;;;;;;11.82;3.40;;;15.10;99.90;;;;;;5091952;28;20044;-64
2022/05/13 06:08:00;;;;;;;12.27;3.10;;;15.20;99.90;;;;;;5090623;28;20048;-64
2022/05/13 06:10:27;;;;;;;11.02;2.80;;;15.30;99.90;;;;;;5090686;28;20043;-63
2022/05/13 06:12:53;;;;;;;9.93;3.38;;;15.40;99.90;;;;;;5089313;28;20067;-63
2022/05/13 06:15:20;;;;;;;10.00;2.58;;;15.60;99.90;;;;;;5086521;28;20099;-63
2022/05/13 06:17:48;;;;;;;8.80;2.80;;;15.50;99.90;;;;;;5089451;28;20075;-63
2022/05/13 06:20:15;;;;;;;9.88;2.45;;;15.60;99.90;;;;;;5085877;28;20063;-63
2022/05/13 06:22:41;;;;;;;7.90;2.65;;;15.60;99.90;;;;;;5084071;28;20064;-64
2022/05/13 06:25:08;;;;;;;5.68;2.00;;;15.60;99.90;;;;;;5089619;28;20071;-62
2022/05/13 06:27:34;;;;;;;6.63;1.77;;;15.60;99.90;;;;;;5086416;28;20079;-62
2022/05/13 06:30:00;;;;;;;7.35;1.88;;;15.40;99.90;;;;;;5086875;28;20067;-63
2022/05/13 06:32:25;;;;;;;8.05;1.95;;;15.40;99.90;;;;;;5088572;28;20055;-63
2022/05/13 06:34:51;;;;;;;10.57;1.77;;;15.30;99.90;;;;;;5086244;28;20066;-63
2022/05/13 06:37:16;;;;;;;10.20;2.20;;;15.20;99.90;;;;;;5085738;28;20088;-63
2022/05/13 06:39:42;;;;;;;7.90;2.25;;;15.20;99.90;;;;;;5086797;28;20085;-63
2022/05/13 06:42:08;;;;;;;10.40;2.25;;;15.10;99.90;;;;;;5084119;28;20041;-63
2022/05/13 06:44:33;;;;;;;9.82;2.58;;;15.00;99.90;;;;;;5089175;28;20044;-62
2022/05/13 06:46:59;;;;;;;7.20;1.73;;;15.10;99.90;;;;;;5081846;28;20131;-62
2022/05/13 06:49:25;;;;;;;9.00;2.10;;;15.20;99.90;;;;;;5080203;28;20044;-63
2022/05/13 06:51:50;;;;;;;6.00;1.98;;;15.30;99.90;;;;;;5077178;28;20072;-64
2022/05/13 06:54:16;;;;;;;10.60;2.10;;;15.30;99.90;;;;;;5088134;28;20048;-63
2022/05/13 06:56:42;;;;;;;7.65;2.03;;;15.30;99.90;;;;;;5079980;28;20194;-63
2022/05/13 06:59:09;;;;;;;10.90;2.00;;;15.30;99.90;;;;;;5076190;28;20136;-63
2022/05/13 07:01:36;;;;;;;6.78;2.08;;;15.20;99.90;;;;;;5089081;28;20478;-63
2022/05/13 07:04:02;;;;;;;7.50;1.40;;;15.20;99.90;;;;;;5090737;28;20060;-65
2022/05/13 07:06:28;;;;;;;8.60;1.65;;;15.20;99.90;;;;;;5088153;28;20044;-62
2022/05/13 07:08:54;;;;;;;6.43;1.60;;;15.30;99.90;;;;;;5084775;28;20108;-63
2022/05/13 07:11:21;;;;;;;6.57;1.60;;;15.30;99.90;;;;;;5089792;28;20044;-63
2022/05/13 07:13:47;;;;;;;4.85;1.40;;;15.40;99.90;;;;;;5089008;28;20111;-64
2022/05/13 07:16:12;;;;;;;6.70;1.60;;;15.60;99.90;;;;;;5087173;28;20151;-64
2022/05/13 07:18:39;;;;;;;6.18;1.50;;;15.70;99.90;;;;;;5088966;28;20079;-63
2022/05/13 07:21:05;;;;;;;7.30;1.90;;;15.80;99.90;;;;;;5088452;28;20122;-64
2022/05/13 07:23:31;;;;;;;7.82;1.65;;;16.00;99.90;;;;;;5087935;28;20044;-65
2022/05/13 07:25:57;;;;;;;5.25;1.40;;;16.10;99.90;;;;;;5086409;28;20086;-64
2022/05/13 07:28:23;;;;;;;5.70;1.50;;;16.30;99.90;;;;;;5075266;28;20455;-63
2022/05/13 07:30:49;;;;;;;5.10;1.40;;;16.40;99.90;;;;;;5082591;28;20036;-63
2022/05/13 07:33:15;;;;;;;6.65;1.80;;;16.40;99.90;;;;;;5075151;28;20094;-63
2022/05/13 07:35:40;;;;;;;5.93;1.55;;;16.40;99.70;;;;;;5069317;28;20036;-64
2022/05/13 07:38:09;;;;;;;4.65;1.38;;;16.30;99.90;;;;;;5083929;28;20040;-64
2022/05/13 07:43:19;;;;;;;6.78;1.73;;;16.20;99.90;;;;;;5088230;28;20124;-63
2022/05/13 07:45:45;;;;;;;9.27;1.55;;;16.20;99.40;;;;;;5085793;28;20478;-63
2022/05/13 07:48:11;;;;;;;7.10;1.58;;;16.40;99.60;;;;;;5068274;28;20415;-63
2022/05/13 07:50:37;;;;;;;8.73;1.73;;;16.50;99.40;;;;;;5079666;28;20036;-63
2022/05/13 07:53:03;;;;;;;4.22;1.38;;;16.30;99.20;;;;;;5076158;28;20102;-64
2022/05/13 07:55:28;;;;;;;5.95;1.50;;;16.30;99.40;;;;;;5081063;28;20088;-64
2022/05/13 07:57:54;;;;;;;4.93;1.60;;;16.30;99.40;;;;;;5081126;28;20134;-63
2022/05/13 08:00:25;;;;;;;5.22;1.40;;;16.50;98.60;;;;;;5072588;28;20375;-63
2022/05/13 08:02:52;;;;;;;6.20;1.80;;;16.80;98.70;;;;;;5087874;28;20047;-63
2022/05/13 08:05:18;;;;;;;4.40;1.30;;;17.00;97.60;;;;;;5086098;28;20048;-63
2022/05/13 08:07:43;;;;;;;7.45;1.30;;;17.20;96.80;;;;;;5080714;28;20048;-63
2022/05/13 08:10:10;;;;;;;4.13;1.38;;;17.10;96.50;;;;;;5081619;28;20434;-63
2022/05/13 08:12:35;;;;;;;3.90;1.40;;;17.20;96.50;;;;;;5073424;28;20080;-63
2022/05/13 08:15:01;;;;;;;8.02;1.40;;;17.30;97.10;;;;;;5072626;28;20095;-64
2022/05/13 08:17:27;;;;;;;5.65;1.20;;;17.30;96.80;;;;;;5080860;28;20126;-64
2022/05/13 08:19:52;;;;;;;7.03;1.75;;;17.40;96.50;;;;;;5074765;28;20131;-63
2022/05/13 08:22:17;;;;;;;6.30;1.25;;;17.60;95.90;;;;;;5083801;28;20043;-64
2022/05/13 08:24:43;;;;;;;4.47;1.30;;;17.70;95.40;;;;;;5084770;28;20048;-63
2022/05/13 08:27:09;;;;;;;8.02;1.50;;;17.60;95.00;;;;;;5086889;28;20055;-64
2022/05/13 08:29:34;;;;;;;6.20;1.40;;;17.60;94.80;;;;;;5070669;28;20463;-65
2022/05/13 08:32:00;;;;;;;4.28;1.33;;;17.70;94.90;;;;;;5078880;28;20052;-65
2022/05/13 08:34:25;;;;;;;3.72;1.20;;;17.60;95.00;;;;;;5084627;28;20119;-64
2022/05/13 08:36:51;;;;;;;8.15;1.58;;;17.60;94.60;;;;;;5087743;28;20131;-64
2022/05/13 08:39:16;;;;;;;4.55;1.40;;;17.50;94.50;;;;;;5078734;28;20040;-63
2022/05/13 08:41:51;;;;;;;6.75;1.42;;;17.50;94.40;;;;;;5085404;28;20055;-63
2022/05/13 08:44:18;;;;;;;7.78;1.60;;;17.40;94.80;;;;;;5076596;28;20397;-63
2022/05/13 08:47:03;;;;;;;6.38;1.10;;;17.30;94.90;;;;;;5080915;28;20040;-63
2022/05/13 08:49:31;;;;;;;;;;;17.40;94.80;;;;;;5082971;28;20063;-65
2022/05/13 08:53:06;;;;;;;5.20;1.30;;;17.30;95.10;;;;;;5091447;28;19943;-64
2022/05/13 08:54:56;;;;;;;5.70;1.20;;;17.60;95.60;;;;;;5088637;28;20044;-64
2022/05/13 08:57:27;;;;;;;6.70;1.63;;;17.80;95.20;;;;;;5089091;28;20086;-63
2022/05/13 08:59:58;;;;;;;4.28;1.20;;;18.00;94.70;;;;;;5086857;28;20089;-64
2022/05/13 09:02:34;;;;;;;4.05;1.20;;;18.00;93.90;;;;;;5090837;28;20051;-63
2022/05/13 09:05:04;;;;;;;6.25;1.95;;;18.10;94.10;;;;;;5078947;28;20060;-63
2022/05/13 09:07:30;;;;;;;5.53;1.40;;;18.30;93.80;;;;;;5070643;28;20118;-64
2022/05/13 09:09:59;;;;;;;5.97;1.60;;;18.30;92.90;;;;;;5089957;28;20487;-64
2022/05/13 09:13:01;;;;;;;6.35;1.50;;;18.10;92.50;;;;;;5091795;28;20113;-64
2022/05/13 09:15:30;;;;;;;6.88;1.50;;;18.10;92.10;;;;;;5089106;28;20047;-64
2022/05/13 09:18:10;;;;;;;7.13;1.90;;;18.10;92.50;;;;;;5091149;28;20036;-63
2022/05/13 09:20:52;;;;;;;6.70;1.63;;;18.00;93.60;;;;;;5079608;28;20043;-64
2022/05/13 09:23:19;;;;;;;7.80;1.83;;;18.00;93.60;;;;;;5085637;28;20069;-63
2022/05/13 09:25:45;;;;;;;8.55;1.90;;;17.80;93.80;;;;;;5091417;28;20051;-63
2022/05/13 09:28:13;;;;;;;6.72;1.52;;;17.70;94.60;;;;;;5089323;28;20036;-63
2022/05/13 09:30:45;;;;;;;6.50;1.45;;;17.90;94.30;;;;;;5082498;28;20133;-65
2022/05/13 09:33:24;;;;;;;4.72;1.40;;;17.90;94.80;;;;;;5079698;28;20130;-64
2022/05/13 09:35:56;;;;;;;6.25;1.73;;;18.10;94.30;;;;;;5082779;28;20413;-64
2022/05/13 09:38:25;;;;;;;8.52;1.70;;;18.20;93.80;;;;;;5082837;28;20059;-64
2022/05/13 09:41:07;;;;;;;5.90;1.33;;;18.30;93.20;;;;;;5082199;28;20154;-64
2022/05/13 09:43:50;;;;;;;5.60;1.50;;;18.30;92.00;;;;;;5084717;28;20043;-64
2022/05/13 09:46:33;;;;;;;5.57;1.42;;;18.10;92.60;;;;;;5085255;28;20146;-64
2022/05/13 09:49:38;;;;;;;7.00;1.40;;;18.30;92.20;;;;;;5085551;28;20079;-65
2022/05/13 09:52:25;;;;;;;6.60;1.60;;;18.40;90.60;;;;;;5083414;28;20098;-65
2022/05/13 09:54:51;;;;;;;6.68;1.67;;;18.50;90.60;;;;;;5084315;28;20233;-66
2022/05/13 09:57:32;;;;;;;7.00;1.40;;;18.70;90.50;;;;;;5077495;28;20107;-64
2022/05/13 10:00:15;;;;;;;5.18;1.40;;;19.00;90.60;;;;;;5085521;28;20059;-64
2022/05/13 10:03:26;;;;;;;5.57;1.52;;;19.20;90.10;;;;;;5085959;28;20145;-64
2022/05/13 10:06:03;;;;;;;5.78;1.40;;;19.20;87.90;;;;;;5082031;28;20659;-63
2022/05/13 10:08:29;;;;;;;8.18;1.50;;;18.90;87.10;;;;;;5086379;28;20089;-63
2022/05/13 10:14:00;;;;;;;5.20;1.48;;;18.60;90.00;;;;;;5086475;28;20820;-64
2022/05/13 10:16:38;;;;;;;5.78;1.67;;;18.80;89.60;;;;;;5083389;28;20065;-63
2022/05/13 10:19:19;;;;;;;6.38;1.40;;;18.60;89.10;;;;;;5083136;28;20573;-64
2022/05/13 10:21:48;;;;;;;5.95;1.42;;;18.50;88.90;;;;;;5083527;28;20047;-64
2022/05/13 10:24:25;;;;;;;7.47;1.63;;;18.60;89.00;;;;;;5086390;28;20044;-64
2022/05/13 10:26:52;;;;;;;5.40;1.40;;;18.40;89.20;;;;;;5087000;28;20555;-63
2022/05/13 10:29:36;;;;;;;9.00;2.03;;;18.50;89.80;;;;;;5084787;28;20097;-66
2022/05/13 10:32:11;;;;;;;6.38;1.73;;;18.70;90.40;;;;;;5085958;28;20040;-64
2022/05/13 10:34:43;;;;;;;5.20;1.42;;;18.50;90.10;;;;;;5086706;28;20052;-65
2022/05/13 10:37:33;;;;;;;6.97;1.80;;;18.50;90.10;;;;;;5084400;28;20459;-64
2022/05/13 10:40:03;;;;;;;5.47;1.63;;;18.50;90.00;;;;;;5082744;28;21221;-64
2022/05/13 10:42:35;;;;;;;7.35;1.42;;;18.60;89.10;;;;;;5087229;28;20048;-65
2022/05/13 10:45:05;;;;;;;6.65;1.80;;;18.60;87.70;;;;;;5082337;28;20055;-64
2022/05/13 10:47:41;;;;;;;6.55;1.45;;;18.40;88.70;;;;;;5081655;28;20517;-64
2022/05/13 10:50:21;;;;;;;5.20;1.35;;;18.10;88.70;;;;;;5083950;28;20044;-65
2022/05/13 10:53:02;;;;;;;5.30;1.55;;;18.00;88.90;;;;;;5083015;28;20127;-64
2022/05/13 10:55:58;;;;;;;6.38;1.20;;;18.00;90.30;;;;;;5085566;28;20564;-65
2022/05/13 10:58:55;;;;;;;6.93;1.55;;;18.20;91.20;;;;;;5086238;28;20040;-65
2022/05/13 11:01:40;;;;;;;9.70;1.80;;;18.10;90.00;;;;;;5086802;28;20040;-65
2022/05/13 11:04:27;;;;;;;6.07;1.88;;;18.10;90.40;;;;;;5086123;28;20087;-64
2022/05/13 11:07:37;;;;;;;9.90;1.77;;;18.20;90.80;;;;;;5081988;28;20064;-64
2022/05/13 11:10:40;;;;;;;6.60;1.90;;;18.10;90.30;;;;;;5083461;28;20068;-66
2022/05/13 11:13:32;;;;;;;9.95;2.13;;;18.10;90.90;;;;;;5032762;28;20052;-65
2022/05/13 11:16:16;;;;;;;6.18;2.13;;;18.20;90.80;;;;;;5083359;28;20088;-65
2022/05/13 11:18:49;;;;;;;7.35;2.13;;;18.50;90.10;;;;;;5083202;28;20036;-65
2022/05/13 11:21:30;;;;;;;8.18;2.17;;;18.80;90.30;;;;;;5083878;28;20523;-65
2022/05/13 11:27:25;;;;;;;7.65;1.77;;;18.60;88.00;;;;;;5085014;28;20087;-64
2022/05/13 11:30:15;;;;;;;7.60;1.60;;;18.70;88.10;;;;;;5082640;28;20576;-64
2022/05/13 11:33:07;;;;;;;6.03;1.70;;;18.70;87.10;;;;;;5083000;28;20059;-65
2022/05/13 11:35:43;;;;;;;7.85;1.77;;;18.80;88.30;;;;;;5082658;28;20131;-64
2022/05/13 11:38:52;;;;;;;6.72;1.70;;;18.90;87.60;;;;;;5085160;28;20047;-65
2022/05/13 11:41:23;;;;;;;6.55;1.67;;;19.00;89.30;;;;;;5084538;28;20492;-65
2022/05/13 11:43:59;;;;;;;8.13;1.77;;;19.00;88.40;;;;;;5086380;28;20082;-66
2022/05/13 11:46:54;;;;;;;8.15;1.77;;;19.30;88.60;;;;;;5084716;28;20048;-65
2022/05/13 11:49:30;;;;;;;6.18;1.60;;;19.10;82.80;;;;;;5085851;28;20028;-65
2022/05/13 11:52:03;;;;;;;7.85;1.70;;;19.10;82.70;;;;;;5084807;28;20051;-65
2022/05/13 11:54:30;;;;;;;7.88;1.95;;;19.00;82.80;;;;;;5080628;28;20185;-64
2022/05/13 11:57:18;;;;;;;9.68;1.88;;;18.80;83.90;;;;;;5081280;28;20055;-65
2022/05/13 11:59:53;;;;;;;6.55;1.65;;;18.80;84.60;;;;;;5085258;28;20052;-64
2022/05/13 12:02:30;;;;;;;7.32;1.70;;;18.90;86.70;;;;;;5083911;28;20115;-67
2022/05/13 12:05:28;;;;;;;7.68;1.88;;;19.00;85.20;;;;;;5084185;28;20047;-65
2022/05/13 12:08:16;;;;;;;8.75;1.90;;;19.20;84.10;;;;;;5080298;28;20062;-65
2022/05/13 12:11:00;;;;;;;6.07;1.70;;;19.20;84.40;;;;;;5083153;28;20098;-66
2022/05/13 12:13:57;;;;;;;5.53;1.60;;;19.10;85.70;;;;;;5081612;28;20691;-66
2022/05/13 12:16:43;;;;;;;5.93;1.70;;;19.10;84.30;;;;;;5080259;28;20068;-67
2022/05/13 12:19:34;;;;;;;5.78;1.33;;;19.30;84.70;;;;;;5077847;28;20085;-65
2022/05/13 12:22:23;;;;;;;7.15;1.73;;;19.70;81.90;;;;;;5082783;28;20101;-66
2022/05/13 12:25:07;;;;;;;5.38;1.20;;;19.80;80.70;;;;;;5078070;28;20096;-66
2022/05/13 12:27:46;;;;;;;6.53;1.83;;;20.20;77.10;;;;;;5074634;28;20366;-65
2022/05/13 12:30:29;;;;;;;4.50;1.40;;;20.40;73.00;;;;;;5081511;28;20040;-66
2022/05/13 12:32:57;;;;;;;6.93;1.52;;;20.60;71.80;;;;;;5077178;28;20460;-67
2022/05/13 12:38:23;;;;;;;5.72;1.42;;;20.60;68.60;;;;;;5075116;28;20055;-65
2022/05/13 12:41:06;;;;;;;4.68;1.40;;;20.30;68.80;;;;;;5077461;28;20446;-66
2022/05/13 12:43:45;;;;;;;4.68;1.30;;;20.20;67.40;;;;;;5084216;28;20040;-65
2022/05/13 12:46:20;;;;;;;6.40;1.30;;;19.90;68.40;;;;;;5078949;28;20115;-65
2022/05/13 12:49:00;;;;;;;5.93;1.30;;;20.00;69.40;;;;;;5080649;28;20054;-66
2022/05/13 12:51:34;;;;;;;4.32;1.20;;;20.00;67.00;;;;;;5080917;28;20040;-66
2022/05/13 12:54:01;;;;;;;5.53;1.38;;;19.80;67.50;;;;;;5080790;28;20575;-65
2022/05/13 12:56:32;;;;;;;7.45;1.38;;;19.80;66.80;;;;;;5078749;28;20067;-65
2022/05/13 12:59:23;;;;;;;5.95;1.52;;;20.00;66.60;;;;;;5083369;28;20093;-66
2022/05/13 13:01:52;;;;;;;4.50;1.30;;;20.20;66.80;;;;;;5086718;28;20083;-65
2022/05/13 13:04:23;;;;;;;5.78;1.42;;;20.10;66.80;;;;;;5081710;28;20041;-65
2022/05/13 13:06:49;;;;;;;6.88;1.70;;;20.20;67.10;;;;;;5074413;28;20040;-65
2022/05/13 13:09:22;;;;;;;6.07;1.33;;;20.10;67.20;;;;;;5073608;28;20107;-65
2022/05/13 13:12:21;;;;;;;5.72;1.48;;;20.00;67.80;;;;;;5099967;28;20055;-66
2022/05/13 13:15:15;;;;;;;7.43;1.63;;;19.90;67.00;;;;;;5071848;28;20045;-67
2022/05/13 13:18:11;;;;;;;6.32;1.30;;;20.00;68.20;;;;;;5079796;28;20045;-65
2022/05/13 13:20:55;;;;;;;4.60;1.33;;;20.10;65.80;;;;;;5073129;28;20067;-66
2022/05/13 13:23:22;;;;;;;6.65;1.65;;;20.10;64.00;;;;;;5075516;28;20128;-65
2022/05/13 13:25:51;;;;;;;5.97;1.50;;;19.90;66.00;;;;;;5084812;28;20123;-65
2022/05/13 13:28:29;;;;;;;8.07;1.77;;;20.00;65.60;;;;;;5091734;28;20462;-65
2022/05/13 13:31:01;;;;;;;7.10;1.42;;;19.90;65.90;;;;;;5091664;28;20094;-65
2022/05/13 13:33:29;;;;;;;6.40;1.73;;;19.90;66.30;;;;;;5091932;28;20040;-65